sensor_id;sensor_type;location;lat;lon;timestamp;pressure;altitude;pressure_sealevel;temperature;humidity
40574;BME280;26283;49.020;8.644;2022-09-30T00:00:40;98361.28;;;15.35;55.71
40574;BME280;26283;49.020;8.644;2022-09-30T00:03:05;98367.53;;;15.35;55.80
40574;BME280;26283;49.020;8.644;2022-09-30T00:05:31;98362.37;;;15.34;55.93
40574;BME280;26283;49.020;8.644;2022-09-30T00:07:56;98364.56;;;15.32;55.99
40574;BME280;26283;49.020;8.644;2022-09-30T00:10:21;98361.03;;;15.31;56.02
40574;BME280;26283;49.020;8.644;2022-09-30T00:12:47;98364.00;;;15.30;56.10
40574;BME280;26283;49.020;8.644;2022-09-30T00:15:12;98366.16;;;15.28;56.31
40574;BME280;26283;49.020;8.644;2022-09-30T00:17:38;98363.19;;;15.24;56.48
40574;BME280;26283;49.020;8.644;2022-09-30T00:20:03;98368.88;;;15.23;56.55
40574;BME280;26283;49.020;8.644;2022-09-30T00:22:29;98367.25;;;15.22;56.44
40574;BME280;26283;49.020;8.644;2022-09-30T00:24:54;98362.91;;;15.21;56.52
40574;BME280;26283;49.020;8.644;2022-09-30T00:27:20;98360.72;;;15.18;56.68
40574;BME280;26283;49.020;8.644;2022-09-30T00:29:45;98359.09;;;15.17;56.96
40574;BME280;26283;49.020;8.644;2022-09-30T00:32:11;98362.09;;;15.15;56.94
40574;BME280;26283;49.020;8.644;2022-09-30T00:34:36;98358.56;;;15.15;56.83
40574;BME280;26283;49.020;8.644;2022-09-30T00:37:02;98367.53;;;15.15;56.95
40574;BME280;26283;49.020;8.644;2022-09-30T00:39:28;98372.13;;;15.15;56.81
40574;BME280;26283;49.020;8.644;2022-09-30T00:41:58;98364.00;;;15.15;56.91
40574;BME280;26283;49.020;8.644;2022-09-30T00:44:50;98364.28;;;15.13;57.12
40574;BME280;26283;49.020;8.644;2022-09-30T00:52:37;98374.28;;;15.07;57.41
40574;BME280;26283;49.020;8.644;2022-09-30T00:55:06;98375.38;;;15.06;57.34
40574;BME280;26283;49.020;8.644;2022-09-30T00:57:35;98380.00;;;15.06;57.34
40574;BME280;26283;49.020;8.644;2022-09-30T01:00:01;98385.41;;;15.06;57.26
40574;BME280;26283;49.020;8.644;2022-09-30T01:02:26;98386.22;;;15.06;57.29
40574;BME280;26283;49.020;8.644;2022-09-30T01:04:52;98383.53;;;15.06;57.16
40574;BME280;26283;49.020;8.644;2022-09-30T01:07:19;98384.59;;;15.05;57.12
40574;BME280;26283;49.020;8.644;2022-09-30T01:09:46;98385.41;;;15.06;57.26
40574;BME280;26283;49.020;8.644;2022-09-30T01:12:19;98394.63;;;15.05;57.38
40574;BME280;26283;49.020;8.644;2022-09-30T01:14:46;98391.09;;;15.04;57.59
40574;BME280;26283;49.020;8.644;2022-09-30T01:17:14;98394.91;;;15.03;57.47
40574;BME280;26283;49.020;8.644;2022-09-30T01:22:56;98394.09;;;15.03;57.71
40574;BME280;26283;49.020;8.644;2022-09-30T01:28:41;98394.63;;;15.00;57.57
40574;BME280;26283;49.020;8.644;2022-09-30T01:34:21;98400.03;;;15.00;57.15
40574;BME280;26283;49.020;8.644;2022-09-30T01:42:14;98408.19;;;15.00;57.25
40574;BME280;26283;49.020;8.644;2022-09-30T01:58:46;98406.28;;;14.95;57.18
40574;BME280;26283;49.020;8.644;2022-09-30T02:01:22;98415.50;;;14.94;57.37
40574;BME280;26283;49.020;8.644;2022-09-30T02:03:55;98415.78;;;14.93;57.22
40574;BME280;26283;49.020;8.644;2022-09-30T02:06:30;98419.00;;;14.95;57.18
40574;BME280;26283;49.020;8.644;2022-09-30T02:09:03;98427.97;;;14.95;57.16
40574;BME280;26283;49.020;8.644;2022-09-30T02:11:34;98429.88;;;14.95;56.97
40574;BME280;26283;49.020;8.644;2022-09-30T02:14:14;98431.22;;;14.97;56.97
40574;BME280;26283;49.020;8.644;2022-09-30T02:16:48;98439.63;;;14.96;57.19
40574;BME280;26283;49.020;8.644;2022-09-30T02:21:50;98435.59;;;14.93;57.14
40574;BME280;26283;49.020;8.644;2022-09-30T02:24:18;98433.69;;;14.94;57.17
40574;BME280;26283;49.020;8.644;2022-09-30T02:26:48;98427.72;;;14.92;57.10
40574;BME280;26283;49.020;8.644;2022-09-30T02:29:17;98432.31;;;14.91;57.23
40574;BME280;26283;49.020;8.644;2022-09-30T02:31:47;98429.88;;;14.90;57.26
40574;BME280;26283;49.020;8.644;2022-09-30T02:34:21;98434.47;;;14.89;57.37
40574;BME280;26283;49.020;8.644;2022-09-30T02:36:56;98434.75;;;14.88;57.54
40574;BME280;26283;49.020;8.644;2022-09-30T02:42:08;98449.66;;;14.85;57.81
40574;BME280;26283;49.020;8.644;2022-09-30T02:44:36;98444.50;;;14.84;57.86
40574;BME280;26283;49.020;8.644;2022-09-30T02:47:17;98451.00;;;14.83;57.94
40574;BME280;26283;49.020;8.644;2022-09-30T02:49:51;98444.75;;;14.82;58.04
40574;BME280;26283;49.020;8.644;2022-09-30T02:57:38;98456.13;;;14.79;58.38
40574;BME280;26283;49.020;8.644;2022-09-30T03:00:07;98458.59;;;14.81;58.08
40574;BME280;26283;49.020;8.644;2022-09-30T03:02:33;98461.56;;;14.79;58.15
40574;BME280;26283;49.020;8.644;2022-09-30T03:04:59;98449.06;;;14.78;58.18
40574;BME280;26283;49.020;8.644;2022-09-30T03:07:25;98449.06;;;14.78;58.19
40574;BME280;26283;49.020;8.644;2022-09-30T03:09:55;98444.72;;;14.77;58.28
40574;BME280;26283;49.020;8.644;2022-09-30T03:18:37;98452.06;;;14.77;58.39
40574;BME280;26283;49.020;8.644;2022-09-30T03:21:56;98462.91;;;14.77;58.45
40574;BME280;26283;49.020;8.644;2022-09-30T03:24:37;98468.59;;;14.75;58.51
40574;BME280;26283;49.020;8.644;2022-09-30T03:29:47;98461.53;;;14.74;58.41
40574;BME280;26283;49.020;8.644;2022-09-30T03:32:21;98469.94;;;14.72;58.45
40574;BME280;26283;49.020;8.644;2022-09-30T03:35:06;98473.47;;;14.73;58.49
40574;BME280;26283;49.020;8.644;2022-09-30T03:38:07;98477.28;;;14.72;58.60
40574;BME280;26283;49.020;8.644;2022-09-30T03:40:55;98478.06;;;14.72;58.66
40574;BME280;26283;49.020;8.644;2022-09-30T03:43:45;98479.19;;;14.71;58.76
40574;BME280;26283;49.020;8.644;2022-09-30T03:46:23;98483.78;;;14.71;58.85
40574;BME280;26283;49.020;8.644;2022-09-30T03:48:52;98484.87;;;14.70;58.76
40574;BME280;26283;49.020;8.644;2022-09-30T03:51:20;98486.50;;;14.71;58.66
40574;BME280;26283;49.020;8.644;2022-09-30T03:53:49;98479.44;;;14.70;58.72
40574;BME280;26283;49.020;8.644;2022-09-30T03:56:23;98482.16;;;14.70;58.74
40574;BME280;26283;49.020;8.644;2022-09-30T03:58:49;98487.31;;;14.71;58.88
40574;BME280;26283;49.020;8.644;2022-09-30T04:01:17;98491.91;;;14.71;58.73
40574;BME280;26283;49.020;8.644;2022-09-30T04:03:47;98495.72;;;14.70;58.85
40574;BME280;26283;49.020;8.644;2022-09-30T04:06:13;98491.09;;;14.70;58.82
40574;BME280;26283;49.020;8.644;2022-09-30T04:08:38;98497.34;;;14.71;58.83
40574;BME280;26283;49.020;8.644;2022-09-30T04:11:04;98504.66;;;14.70;58.86
40574;BME280;26283;49.020;8.644;2022-09-30T04:13:30;98503.84;;;14.70;58.91
40574;BME280;26283;49.020;8.644;2022-09-30T04:15:55;98501.13;;;14.70;58.96
40574;BME280;26283;49.020;8.644;2022-09-30T04:18:21;98494.34;;;14.67;58.93
40574;BME280;26283;49.020;8.644;2022-09-30T04:20:46;98492.44;;;14.68;58.92
40574;BME280;26283;49.020;8.644;2022-09-30T04:23:11;98504.91;;;14.69;58.95
40574;BME280;26283;49.020;8.644;2022-09-30T04:25:37;98501.66;;;14.67;58.98
40574;BME280;26283;49.020;8.644;2022-09-30T04:28:02;98506.00;;;14.68;58.99
40574;BME280;26283;49.020;8.644;2022-09-30T04:30:28;98512.50;;;14.67;59.03
40574;BME280;26283;49.020;8.644;2022-09-30T04:32:53;98508.97;;;14.66;59.04
40574;BME280;26283;49.020;8.644;2022-09-30T04:35:18;98508.97;;;14.66;59.04
40574;BME280;26283;49.020;8.644;2022-09-30T04:37:44;98514.41;;;14.66;59.07
40574;BME280;26283;49.020;8.644;2022-09-30T04:40:11;98514.41;;;14.66;59.10
40574;BME280;26283;49.020;8.644;2022-09-30T04:42:38;98518.19;;;14.65;59.07
40574;BME280;26283;49.020;8.644;2022-09-30T04:45:05;98513.56;;;14.66;59.10
40574;BME280;26283;49.020;8.644;2022-09-30T04:47:31;98521.72;;;14.66;59.12
40574;BME280;26283;49.020;8.644;2022-09-30T04:49:57;98520.09;;;14.65;59.18
40574;BME280;26283;49.020;8.644;2022-09-30T04:52:22;98530.94;;;14.65;59.22
40574;BME280;26283;49.020;8.644;2022-09-30T04:54:48;98522.78;;;14.65;59.23
40574;BME280;26283;49.020;8.644;2022-09-30T04:57:13;98520.34;;;14.63;59.25
40574;BME280;26283;49.020;8.644;2022-09-30T04:59:39;98510.31;;;14.64;59.29
40574;BME280;26283;49.020;8.644;2022-09-30T05:02:05;98519.25;;;14.64;59.33
40574;BME280;26283;49.020;8.644;2022-09-30T05:04:30;98521.16;;;14.64;59.38
40574;BME280;26283;49.020;8.644;2022-09-30T05:07:00;98526.84;;;14.62;59.41
40574;BME280;26283;49.020;8.644;2022-09-30T05:09:27;98522.22;;;14.63;59.41
40574;BME280;26283;49.020;8.644;2022-09-30T05:11:53;98521.41;;;14.62;59.42
40574;BME280;26283;49.020;8.644;2022-09-30T05:14:18;98521.41;;;14.62;59.46
40574;BME280;26283;49.020;8.644;2022-09-30T05:16:44;98534.16;;;14.62;59.43
40574;BME280;26283;49.020;8.644;2022-09-30T05:19:09;98531.44;;;14.62;59.40
40574;BME280;26283;49.020;8.644;2022-09-30T05:21:34;98526.84;;;14.62;59.40
40574;BME280;26283;49.020;8.644;2022-09-30T05:24:01;98526.03;;;14.62;59.41
40574;BME280;26283;49.020;8.644;2022-09-30T05:26:26;98529.81;;;14.61;59.40
40574;BME280;26283;49.020;8.644;2022-09-30T05:28:52;98535.22;;;14.61;59.49
40574;BME280;26283;49.020;8.644;2022-09-30T05:31:17;98542.28;;;14.62;59.54
40574;BME280;26283;49.020;8.644;2022-09-30T05:33:45;98546.34;;;14.59;59.59
40574;BME280;26283;49.020;8.644;2022-09-30T05:36:13;98549.88;;;14.60;59.62
40574;BME280;26283;49.020;8.644;2022-09-30T05:38:39;98548.25;;;14.59;59.68
40574;BME280;26283;49.020;8.644;2022-09-30T05:41:06;98551.75;;;14.59;59.68
40574;BME280;26283;49.020;8.644;2022-09-30T05:43:32;98549.88;;;14.60;59.67
40574;BME280;26283;49.020;8.644;2022-09-30T05:45:57;98544.72;;;14.58;59.69
40574;BME280;26283;49.020;8.644;2022-09-30T05:48:24;98550.12;;;14.58;59.68
40574;BME280;26283;49.020;8.644;2022-09-30T05:50:56;98557.19;;;14.59;59.71
40574;BME280;26283;49.020;8.644;2022-09-30T05:53:22;98552.03;;;14.58;59.86
40574;BME280;26283;49.020;8.644;2022-09-30T05:55:48;98562.06;;;14.57;59.82
40574;BME280;26283;49.020;8.644;2022-09-30T05:58:15;98569.38;;;14.57;59.83
40574;BME280;26283;49.020;8.644;2022-09-30T06:00:42;98569.63;;;14.55;59.87
40574;BME280;26283;49.020;8.644;2022-09-30T06:03:08;98576.69;;;14.56;59.84
40574;BME280;26283;49.020;8.644;2022-09-30T06:05:33;98587.53;;;14.56;59.83
40574;BME280;26283;49.020;8.644;2022-09-30T06:07:59;98588.34;;;14.57;59.78
40574;BME280;26283;49.020;8.644;2022-09-30T06:10:25;98592.97;;;14.56;59.77
40574;BME280;26283;49.020;8.644;2022-09-30T06:12:50;98590.50;;;14.55;59.83
40574;BME280;26283;49.020;8.644;2022-09-30T06:15:16;98599.44;;;14.55;59.92
40574;BME280;26283;49.020;8.644;2022-09-30T06:17:42;98604.06;;;14.55;60.02
40574;BME280;26283;49.020;8.644;2022-09-30T06:20:10;98611.38;;;14.54;60.10
40574;BME280;26283;49.020;8.644;2022-09-30T06:22:36;98615.97;;;14.54;60.18
40574;BME280;26283;49.020;8.644;2022-09-30T06:25:03;98615.16;;;14.53;60.18
40574;BME280;26283;49.020;8.644;2022-09-30T06:27:30;98620.59;;;14.53;60.28
40574;BME280;26283;49.020;8.644;2022-09-30T06:29:55;98625.19;;;14.53;60.31
40574;BME280;26283;49.020;8.644;2022-09-30T06:32:21;98623.56;;;14.52;60.32
40574;BME280;26283;49.020;8.644;2022-09-30T06:34:47;98636.03;;;14.53;60.34
40574;BME280;26283;49.020;8.644;2022-09-30T06:37:12;98633.31;;;14.53;60.35
40574;BME280;26283;49.020;8.644;2022-09-30T06:39:40;98631.69;;;14.52;60.39
40574;BME280;26283;49.020;8.644;2022-09-30T06:42:06;98633.56;;;14.51;60.40
40574;BME280;26283;49.020;8.644;2022-09-30T06:44:32;98633.56;;;14.51;60.45
40574;BME280;26283;49.020;8.644;2022-09-30T06:46:57;98640.91;;;14.51;60.49
40574;BME280;26283;49.020;8.644;2022-09-30T06:49:23;98647.94;;;14.52;60.58
40574;BME280;26283;49.020;8.644;2022-09-30T06:51:49;98642.81;;;14.50;60.67
40574;BME280;26283;49.020;8.644;2022-09-30T06:54:15;98649.03;;;14.51;60.78
40574;BME280;26283;49.020;8.644;2022-09-30T06:56:41;98647.41;;;14.50;60.76
40574;BME280;26283;49.020;8.644;2022-09-30T06:59:08;98642.00;;;14.50;60.72
40574;BME280;26283;49.020;8.644;2022-09-30T07:01:33;98651.22;;;14.49;60.73
40574;BME280;26283;49.020;8.644;2022-09-30T07:03:59;98650.38;;;14.48;60.85
40574;BME280;26283;49.020;8.644;2022-09-30T07:06:26;98660.41;;;14.48;60.89
40574;BME280;26283;49.020;8.644;2022-09-30T07:08:52;98660.16;;;14.49;60.94
40574;BME280;26283;49.020;8.644;2022-09-30T07:11:18;98651.47;;;14.47;60.97
40574;BME280;26283;49.020;8.644;2022-09-30T07:13:45;98652.28;;;14.48;61.04
40574;BME280;26283;49.020;8.644;2022-09-30T07:16:16;98668.53;;;14.48;61.12
40574;BME280;26283;49.020;8.644;2022-09-30T07:18:43;98669.09;;;14.50;61.20
40574;BME280;26283;49.020;8.644;2022-09-30T07:21:11;98676.13;;;14.51;61.08
40574;BME280;26283;49.020;8.644;2022-09-30T07:23:38;98673.16;;;14.52;60.94
40574;BME280;26283;49.020;8.644;2022-09-30T07:26:10;98686.47;;;14.54;60.83
40574;BME280;26283;49.020;8.644;2022-09-30T07:28:36;98693.00;;;14.58;60.72
40574;BME280;26283;49.020;8.644;2022-09-30T07:31:09;98689.22;;;14.59;60.63
40574;BME280;26283;49.020;8.644;2022-09-30T07:33:36;98702.53;;;14.60;60.56
40574;BME280;26283;49.020;8.644;2022-09-30T07:36:05;98705.00;;;14.62;60.45
40574;BME280;26283;49.020;8.644;2022-09-30T07:38:35;98704.72;;;14.63;60.40
40574;BME280;26283;49.020;8.644;2022-09-30T07:41:08;98696.59;;;14.63;60.34
40574;BME280;26283;49.020;8.644;2022-09-30T07:43:35;98697.41;;;14.64;60.30
40574;BME280;26283;49.020;8.644;2022-09-30T07:46:13;98710.72;;;14.65;60.25
40574;BME280;26283;49.020;8.644;2022-09-30T07:48:41;98712.59;;;14.65;60.23
40574;BME280;26283;49.020;8.644;2022-09-30T07:51:20;98708.81;;;14.66;60.18
40574;BME280;26283;49.020;8.644;2022-09-30T07:53:49;98717.78;;;14.66;60.16
40574;BME280;26283;49.020;8.644;2022-09-30T07:56:15;98717.78;;;14.66;60.16
40574;BME280;26283;49.020;8.644;2022-09-30T07:58:41;98726.72;;;14.67;60.13
40574;BME280;26283;49.020;8.644;2022-09-30T08:01:07;98733.22;;;14.66;60.10
40574;BME280;26283;49.020;8.644;2022-09-30T08:03:34;98738.41;;;14.67;60.09
40574;BME280;26283;49.020;8.644;2022-09-30T08:06:09;98731.09;;;14.68;60.06
40574;BME280;26283;49.020;8.644;2022-09-30T08:08:35;98732.16;;;14.67;60.05
40574;BME280;26283;49.020;8.644;2022-09-30T08:11:01;98734.06;;;14.66;60.02
40574;BME280;26283;49.020;8.644;2022-09-30T08:13:26;98736.50;;;14.68;60.01
40574;BME280;26283;49.020;8.644;2022-09-30T08:15:52;98742.75;;;14.68;59.99
40574;BME280;26283;49.020;8.644;2022-09-30T08:18:17;98745.47;;;14.68;59.97
40574;BME280;26283;49.020;8.644;2022-09-30T08:20:43;98748.16;;;14.68;59.95
40574;BME280;26283;49.020;8.644;2022-09-30T08:23:08;98753.59;;;14.68;59.93
40574;BME280;26283;49.020;8.644;2022-09-30T08:25:33;98748.16;;;14.68;59.92
40574;BME280;26283;49.020;8.644;2022-09-30T08:27:59;98758.19;;;14.68;59.93
40574;BME280;26283;49.020;8.644;2022-09-30T08:30:24;98764.44;;;14.68;59.91
40574;BME280;26283;49.020;8.644;2022-09-30T08:32:50;98758.75;;;14.70;59.90
40574;BME280;26283;49.020;8.644;2022-09-30T08:35:15;98766.09;;;14.69;59.89
40574;BME280;26283;49.020;8.644;2022-09-30T08:37:41;98768.78;;;14.69;59.88
40574;BME280;26283;49.020;8.644;2022-09-30T08:40:16;98774.47;;;14.68;59.88
40574;BME280;26283;49.020;8.644;2022-09-30T08:43:02;98777.75;;;14.70;59.89
40574;BME280;26283;49.020;8.644;2022-09-30T08:51:15;98783.16;;;14.70;59.82
40574;BME280;26283;49.020;8.644;2022-09-30T08:53:46;98786.97;;;14.69;59.83
40574;BME280;26283;49.020;8.644;2022-09-30T08:56:20;98787.78;;;14.69;59.83
40574;BME280;26283;49.020;8.644;2022-09-30T08:58:49;98783.44;;;14.68;59.86
40574;BME280;26283;49.020;8.644;2022-09-30T09:01:33;98786.12;;;14.68;59.83
40574;BME280;26283;49.020;8.644;2022-09-30T09:04:01;98791.31;;;14.70;59.84
40574;BME280;26283;49.020;8.644;2022-09-30T09:06:30;98790.25;;;14.71;59.80
40574;BME280;26283;49.020;8.644;2022-09-30T09:18:01;98803.22;;;14.69;59.79
40574;BME280;26283;49.020;8.644;2022-09-30T09:20:35;98808.41;;;14.70;59.75
40574;BME280;26283;49.020;8.644;2022-09-30T09:23:04;98811.13;;;14.70;59.73
40574;BME280;26283;49.020;8.644;2022-09-30T09:25:33;98813.56;;;14.72;59.73
40574;BME280;26283;49.020;8.644;2022-09-30T09:28:01;98810.88;;;14.72;59.73
40574;BME280;26283;49.020;8.644;2022-09-30T09:30:43;98811.66;;;14.72;59.71
40574;BME280;26283;49.020;8.644;2022-09-30T09:33:17;98805.97;;;14.74;59.72
40574;BME280;26283;49.020;8.644;2022-09-30T09:44:01;98787.81;;;14.74;59.61
40574;BME280;26283;49.020;8.644;2022-09-30T09:52:13;98788.38;;;14.77;59.54
40574;BME280;26283;49.020;8.644;2022-09-30T09:54:52;98787.28;;;14.78;59.57
40574;BME280;26283;49.020;8.644;2022-09-30T09:57:23;98789.19;;;14.77;59.49
40574;BME280;26283;49.020;8.644;2022-09-30T10:00:03;98785.41;;;14.78;59.49
40574;BME280;26283;49.020;8.644;2022-09-30T10:03:03;98786.47;;;14.77;59.49
40574;BME280;26283;49.020;8.644;2022-09-30T10:05:32;98788.13;;;14.78;59.52
40574;BME280;26283;49.020;8.644;2022-09-30T10:08:17;98786.47;;;14.77;59.54
40574;BME280;26283;49.020;8.644;2022-09-30T10:10:54;98788.63;;;14.75;59.60
40574;BME280;26283;49.020;8.644;2022-09-30T10:13:24;98789.44;;;14.75;59.62
40574;BME280;26283;49.020;8.644;2022-09-30T10:15:55;98790.25;;;14.76;59.61
40574;BME280;26283;49.020;8.644;2022-09-30T10:21:00;98796.50;;;14.77;59.64
40574;BME280;26283;49.020;8.644;2022-09-30T10:23:35;98795.69;;;14.76;59.65
40574;BME280;26283;49.020;8.644;2022-09-30T10:28:49;98804.37;;;14.78;59.65
40574;BME280;26283;49.020;8.644;2022-09-30T10:31:37;98797.06;;;14.79;59.62
40574;BME280;26283;49.020;8.644;2022-09-30T10:34:24;98795.19;;;14.79;59.64
40574;BME280;26283;49.020;8.644;2022-09-30T10:36:51;98797.06;;;14.79;59.63
40574;BME280;26283;49.020;8.644;2022-09-30T10:39:33;98793.28;;;14.80;59.59
40574;BME280;26283;49.020;8.644;2022-09-30T10:44:45;98785.97;;;14.80;59.59
40574;BME280;26283;49.020;8.644;2022-09-30T10:47:26;98788.69;;;14.80;59.60
40574;BME280;26283;49.020;8.644;2022-09-30T10:50:11;98794.91;;;14.81;59.58
40574;BME280;26283;49.020;8.644;2022-09-30T10:53:03;98794.66;;;14.82;59.58
40574;BME280;26283;49.020;8.644;2022-09-30T10:55:41;98796.56;;;14.82;59.57
40574;BME280;26283;49.020;8.644;2022-09-30T11:01:11;98796.31;;;14.83;59.55
40574;BME280;26283;49.020;8.644;2022-09-30T11:04:04;98803.38;;;14.84;59.53
40574;BME280;26283;49.020;8.644;2022-09-30T11:06:36;98793.59;;;14.83;59.53
40574;BME280;26283;49.020;8.644;2022-09-30T11:09:08;98800.41;;;14.86;59.47
40574;BME280;26283;49.020;8.644;2022-09-30T11:12:08;98791.19;;;14.87;59.45
40574;BME280;26283;49.020;8.644;2022-09-30T11:14:38;98793.66;;;14.88;59.44
40574;BME280;26283;49.020;8.644;2022-09-30T11:19:52;98794.22;;;14.90;59.39
40574;BME280;26283;49.020;8.644;2022-09-30T11:25:15;98796.41;;;14.93;59.31
40574;BME280;26283;49.020;8.644;2022-09-30T11:30:37;98795.03;;;14.96;59.24
40574;BME280;26283;49.020;8.644;2022-09-30T11:41:42;98802.97;;;15.02;59.05
40574;BME280;26283;49.020;8.644;2022-09-30T11:44:35;98797.56;;;15.02;59.04
40574;BME280;26283;49.020;8.644;2022-09-30T11:57:48;98804.41;;;15.10;58.86
40574;BME280;26283;49.020;8.644;2022-09-30T12:00:17;98797.09;;;15.11;58.84
40574;BME280;26283;49.020;8.644;2022-09-30T12:02:46;98795.19;;;15.11;58.84
40574;BME280;26283;49.020;8.644;2022-09-30T12:05:18;98794.94;;;15.13;58.81
40574;BME280;26283;49.020;8.644;2022-09-30T12:08:02;98794.69;;;15.14;58.79
40574;BME280;26283;49.020;8.644;2022-09-30T12:10:36;98799.03;;;15.15;58.78
40574;BME280;26283;49.020;8.644;2022-09-30T12:13:17;98788.97;;;15.16;58.75
40574;BME280;26283;49.020;8.644;2022-09-30T12:15:44;98798.75;;;15.17;58.75
40574;BME280;26283;49.020;8.644;2022-09-30T12:18:12;98796.59;;;15.19;58.68
40574;BME280;26283;49.020;8.644;2022-09-30T12:20:50;98790.09;;;15.20;58.64
40574;BME280;26283;49.020;8.644;2022-09-30T12:23:30;98793.34;;;15.22;58.61
40574;BME280;26283;49.020;8.644;2022-09-30T12:25:59;98789.56;;;15.23;58.58
40574;BME280;26283;49.020;8.644;2022-09-30T12:28:45;98792.84;;;15.25;58.53
40574;BME280;26283;49.020;8.644;2022-09-30T12:43:22;98796.16;;;15.32;58.39
40574;BME280;26283;49.020;8.644;2022-09-30T12:48:35;98785.88;;;15.34;58.29
40574;BME280;26283;49.020;8.644;2022-09-30T12:51:03;98791.84;;;15.36;58.28
40574;BME280;26283;49.020;8.644;2022-09-30T12:53:32;98795.91;;;15.38;58.24
40574;BME280;26283;49.020;8.644;2022-09-30T12:56:07;98791.31;;;15.39;58.20
40574;BME280;26283;49.020;8.644;2022-09-30T12:58:37;98791.88;;;15.41;58.16
40574;BME280;26283;49.020;8.644;2022-09-30T13:01:06;98791.59;;;15.42;58.14
40574;BME280;26283;49.020;8.644;2022-09-30T13:06:24;98792.97;;;15.45;58.04
40574;BME280;26283;49.020;8.644;2022-09-30T13:11:42;98798.97;;;15.47;58.00
40574;BME280;26283;49.020;8.644;2022-09-30T13:32:37;98804.50;;;15.57;57.84
40574;BME280;26283;49.020;8.644;2022-09-30T13:41:01;98812.94;;;15.61;57.77
40574;BME280;26283;49.020;8.644;2022-09-30T13:46:33;98806.16;;;15.63;57.69
40574;BME280;26283;49.020;8.644;2022-09-30T13:49:54;98812.16;;;15.65;57.62
40574;BME280;26283;49.020;8.644;2022-09-30T13:51:59;98818.16;;;15.67;57.59
40574;BME280;26283;49.020;8.644;2022-09-30T13:54:32;98812.72;;;15.67;57.57
40574;BME280;26283;49.020;8.644;2022-09-30T13:57:03;98818.44;;;15.71;57.55
40574;BME280;26283;49.020;8.644;2022-09-30T14:02:54;98825.50;;;15.72;57.48
40574;BME280;26283;49.020;8.644;2022-09-30T14:05:43;98826.06;;;15.74;57.48
40574;BME280;26283;49.020;8.644;2022-09-30T14:09:22;98822.28;;;15.75;57.45
40574;BME280;26283;49.020;8.644;2022-09-30T14:22:25;98822.84;;;15.82;57.39
40574;BME280;26283;49.020;8.644;2022-09-30T14:24:54;98814.69;;;15.82;57.36
40574;BME280;26283;49.020;8.644;2022-09-30T14:30:24;98817.69;;;15.86;57.30
40574;BME280;26283;49.020;8.644;2022-09-30T14:32:58;98819.91;;;15.89;57.28
40574;BME280;26283;49.020;8.644;2022-09-30T14:35:27;98815.28;;;15.89;57.34
40574;BME280;26283;49.020;8.644;2022-09-30T14:38:24;98823.16;;;15.91;57.32
40574;BME280;26283;49.020;8.644;2022-09-30T14:40:53;98822.09;;;15.92;57.22
40574;BME280;26283;49.020;8.644;2022-09-30T14:43:23;98821.81;;;15.93;57.24
40574;BME280;26283;49.020;8.644;2022-09-30T14:45:58;98828.91;;;15.94;57.24
40574;BME280;26283;49.020;8.644;2022-09-30T14:48:32;98823.19;;;15.96;57.23
40574;BME280;26283;49.020;8.644;2022-09-30T14:51:00;98815.88;;;15.96;57.24
40574;BME280;26283;49.020;8.644;2022-09-30T14:53:38;98812.87;;;15.98;57.25
40574;BME280;26283;49.020;8.644;2022-09-30T14:56:20;98815.59;;;15.98;57.25
40574;BME280;26283;49.020;8.644;2022-09-30T14:58:47;98815.34;;;15.99;57.20
40574;BME280;26283;49.020;8.644;2022-09-30T15:01:17;98819.69;;;16.00;57.25
40574;BME280;26283;49.020;8.644;2022-09-30T15:03:47;98826.78;;;16.01;57.24
40574;BME280;26283;49.020;8.644;2022-09-30T15:06:19;98822.94;;;16.02;57.29
40574;BME280;26283;49.020;8.644;2022-09-30T15:08:45;98822.69;;;16.04;57.25
40574;BME280;26283;49.020;8.644;2022-09-30T15:11:20;98816.16;;;16.05;57.26
40574;BME280;26283;49.020;8.644;2022-09-30T15:13:48;98815.06;;;16.06;57.24
40574;BME280;26283;49.020;8.644;2022-09-30T15:16:27;98818.63;;;16.06;57.24
40574;BME280;26283;49.020;8.644;2022-09-30T15:18:53;98815.91;;;16.06;57.19
40574;BME280;26283;49.020;8.644;2022-09-30T15:21:20;98814.81;;;16.07;57.20
40574;BME280;26283;49.020;8.644;2022-09-30T15:23:56;98821.88;;;16.08;57.21
40574;BME280;26283;49.020;8.644;2022-09-30T15:26:24;98825.16;;;16.10;57.19
40574;BME280;26283;49.020;8.644;2022-09-30T15:28:50;98823.25;;;16.11;57.13
40574;BME280;26283;49.020;8.644;2022-09-30T15:31:27;98821.38;;;16.11;57.12
40574;BME280;26283;49.020;8.644;2022-09-30T15:36:37;98826.53;;;16.13;57.12
40574;BME280;26283;49.020;8.644;2022-09-30T15:39:04;98824.63;;;16.14;57.10
40574;BME280;26283;49.020;8.644;2022-09-30T15:41:41;98823.81;;;16.13;57.05
40574;BME280;26283;49.020;8.644;2022-09-30T15:44:15;98829.81;;;16.15;57.02
40574;BME280;26283;49.020;8.644;2022-09-30T15:46:59;98826.00;;;16.16;57.02
40574;BME280;26283;49.020;8.644;2022-09-30T15:49:43;98826.56;;;16.18;57.02
40574;BME280;26283;49.020;8.644;2022-09-30T15:54:45;98828.22;;;16.19;56.94
40574;BME280;26283;49.020;8.644;2022-09-30T15:57:50;98823.84;;;16.18;56.91
40574;BME280;26283;49.020;8.644;2022-09-30T16:00:33;98829.84;;;16.20;56.85
40574;BME280;26283;49.020;8.644;2022-09-30T16:03:45;98824.41;;;16.20;56.85
40574;BME280;26283;49.020;8.644;2022-09-30T16:06:08;98816.81;;;16.22;56.84
40574;BME280;26283;49.020;8.644;2022-09-30T16:08:56;98818.44;;;16.23;56.80
40574;BME280;26283;49.020;8.644;2022-09-30T16:11:31;98811.37;;;16.22;56.80
40574;BME280;26283;49.020;8.644;2022-09-30T16:14:00;98810.28;;;16.23;56.78
40574;BME280;26283;49.020;8.644;2022-09-30T16:16:29;98815.44;;;16.25;56.74
40574;BME280;26283;49.020;8.644;2022-09-30T16:18:56;98813.53;;;16.25;56.68
40574;BME280;26283;49.020;8.644;2022-09-30T16:21:47;98815.97;;;16.27;56.71
40574;BME280;26283;49.020;8.644;2022-09-30T16:27:19;98821.16;;;16.28;56.65
40574;BME280;26283;49.020;8.644;2022-09-30T16:29:45;98821.16;;;16.28;56.67
40574;BME280;26283;49.020;8.644;2022-09-30T16:32:10;98827.16;;;16.30;56.66
40574;BME280;26283;49.020;8.644;2022-09-30T16:34:38;98814.63;;;16.29;56.62